createdAt,value
2023-04-27T00:01:01.076Z,66.38
2023-04-27T00:03:28.394Z,67.29
2023-04-27T00:05:55.321Z,66.85
2023-04-27T00:08:22.091Z,67.32
2023-04-27T00:10:48.582Z,67.11
2023-04-27T00:13:14.950Z,67.07
2023-04-27T00:15:41.654Z,67.04
2023-04-27T00:18:08.174Z,67.50
2023-04-27T00:20:34.754Z,67.27
2023-04-27T00:23:01.209Z,67.96
2023-04-27T00:25:27.824Z,67.56
2023-04-27T00:27:54.325Z,67.64
2023-04-27T00:30:20.820Z,68.44
2023-04-27T00:32:47.282Z,68.61
2023-04-27T00:35:13.746Z,68.41
2023-04-27T00:37:40.163Z,68.01
2023-04-27T00:40:07.902Z,68.74
2023-04-27T00:42:35.469Z,69.15
2023-04-27T00:45:02.401Z,68.92
2023-04-27T00:47:30.521Z,68.93
2023-04-27T00:49:57.147Z,69.79
2023-04-27T00:52:23.600Z,69.46
2023-04-27T00:54:52.216Z,68.84
2023-04-27T00:57:19.002Z,68.66
2023-04-27T00:59:46.120Z,69.33
2023-04-27T01:02:13.650Z,69.01
2023-04-27T01:04:41.013Z,69.69
2023-04-27T01:07:07.497Z,69.51
2023-04-27T01:09:33.961Z,69.48
2023-04-27T01:12:00.373Z,69.55
2023-04-27T01:14:26.799Z,70.33
2023-04-27T01:16:53.297Z,71.03
2023-04-27T01:19:19.790Z,71.15
2023-04-27T01:21:46.561Z,70.76
2023-04-27T01:24:12.981Z,70.71
2023-04-27T01:26:39.417Z,71.57
2023-04-27T01:29:06.206Z,71.05
2023-04-27T01:31:34.193Z,70.96
2023-04-27T01:34:00.639Z,70.49
2023-04-27T01:36:27.780Z,70.68
2023-04-27T01:38:54.206Z,70.85
2023-04-27T01:41:20.641Z,70.59
2023-04-27T01:43:47.106Z,70.75
2023-04-27T01:46:14.338Z,71.04
2023-04-27T01:48:41.351Z,71.42
2023-04-27T01:51:07.794Z,71.26
2023-04-27T01:53:46.461Z,71.63
2023-04-27T01:56:12.871Z,71.78
2023-04-27T01:58:45.242Z,72.28
2023-04-27T02:01:11.827Z,71.58
2023-04-27T02:03:38.465Z,72.51
2023-04-27T02:06:10.985Z,73.35
2023-04-27T02:08:37.429Z,72.68
2023-04-27T02:11:03.910Z,72.72
2023-04-27T02:13:42.349Z,73.55
2023-04-27T02:16:20.808Z,73.05
2023-04-27T02:18:47.676Z,73.43
2023-04-27T02:21:14.103Z,73.05
2023-04-27T02:23:46.359Z,72.64
2023-04-27T02:26:20.359Z,73.64
2023-04-27T02:29:55.928Z,74.60
2023-04-27T02:33:19.211Z,74.92
2023-04-27T02:36:48.172Z,74.83
2023-04-27T02:40:10.974Z,74.85
2023-04-27T02:43:52.376Z,75.01
2023-04-27T02:47:15.240Z,75.56
2023-04-27T02:50:56.391Z,74.96
2023-04-27T02:54:24.985Z,74.93
2023-04-27T02:57:47.853Z,75.63
2023-04-27T03:01:16.982Z,75.78
2023-04-27T03:04:39.767Z,75.81
2023-04-27T03:08:14.868Z,75.67
2023-04-27T03:11:37.717Z,75.59
2023-04-27T03:15:13.105Z,76.05
2023-04-27T03:18:35.960Z,76.13
2023-04-27T03:21:20.961Z,75.79
2023-04-27T03:23:47.436Z,74.47
2023-04-27T03:26:14.914Z,74.33
2023-04-27T03:28:42.228Z,74.39
2023-04-27T03:31:11.779Z,74.31
2023-04-27T03:33:38.301Z,74.32
2023-04-27T03:36:06.466Z,74.74
2023-04-27T03:38:33.660Z,74.66
2023-04-27T03:41:00.160Z,74.60
2023-04-27T03:43:27.120Z,74.71
2023-04-27T03:45:53.943Z,74.48
2023-04-27T03:48:20.738Z,74.35
2023-04-27T03:50:47.260Z,74.94
2023-04-27T03:53:14.267Z,75.26
2023-04-27T03:55:42.311Z,74.74
2023-04-27T03:58:10.330Z,75.19
2023-04-27T04:00:37.805Z,75.27
2023-04-27T04:03:05.689Z,74.98
2023-04-27T04:05:32.571Z,75.14
2023-04-27T04:07:58.999Z,75.48
2023-04-27T04:10:25.604Z,75.71
2023-04-27T04:12:52.884Z,75.28
2023-04-27T04:15:20.221Z,75.21
2023-04-27T04:17:47.539Z,76.07
2023-04-27T04:20:14.184Z,76.36
2023-04-27T04:22:40.597Z,76.79
2023-04-27T04:25:07.480Z,76.08
2023-04-27T04:27:33.932Z,76.37
2023-04-27T04:30:00.564Z,76.70
2023-04-27T04:32:31.348Z,76.25
2023-04-27T04:34:58.872Z,75.94
2023-04-27T04:37:27.673Z,76.47
2023-04-27T04:39:54.075Z,76.72
2023-04-27T04:42:20.758Z,77.38
2023-04-27T04:44:47.282Z,77.50
2023-04-27T04:47:13.720Z,77.57
2023-04-27T04:49:40.251Z,77.19
2023-04-27T04:52:06.762Z,77.53
2023-04-27T04:54:33.187Z,76.92
2023-04-27T04:57:00.926Z,77.28
2023-04-27T04:59:27.372Z,76.56
2023-04-27T05:01:56.811Z,77.37
2023-04-27T05:04:23.540Z,77.32
2023-04-27T05:06:50.187Z,78.03
2023-04-27T05:09:16.604Z,78.13
2023-04-27T05:11:49.085Z,78.90
2023-04-27T05:14:15.547Z,79.14
2023-04-27T05:16:42.129Z,78.09
2023-04-27T05:19:08.683Z,77.41
2023-04-27T05:21:35.251Z,76.82
2023-04-27T05:24:01.722Z,76.83
2023-04-27T05:26:28.415Z,76.54
2023-04-27T05:28:54.825Z,76.34
2023-04-27T05:31:28.936Z,74.96
2023-04-27T05:33:55.866Z,74.51
2023-04-27T05:36:22.372Z,74.11
2023-04-27T05:38:48.822Z,72.92
2023-04-27T05:41:15.540Z,71.37
2023-04-27T05:43:41.932Z,69.60
2023-04-27T05:46:08.627Z,68.31
2023-04-27T05:48:35.046Z,67.21
2023-04-27T05:51:02.762Z,66.47
2023-04-27T05:53:34.494Z,65.62
2023-04-27T05:56:01.239Z,64.88
2023-04-27T05:58:27.850Z,63.75
2023-04-27T06:00:54.811Z,64.11
2023-04-27T06:03:21.676Z,62.55
2023-04-27T06:05:55.350Z,60.42
2023-04-27T06:08:23.382Z,60.20
2023-04-27T06:10:53.086Z,59.47
2023-04-27T06:13:20.264Z,57.75
2023-04-27T06:15:47.458Z,57.05
2023-04-27T06:18:14.520Z,56.77
2023-04-27T06:20:41.922Z,55.15
2023-04-27T06:23:08.718Z,54.54
2023-04-27T06:25:37.398Z,55.81
2023-04-27T06:28:03.914Z,55.39
2023-04-27T06:30:30.353Z,55.22
2023-04-27T06:32:56.870Z,54.16
2023-04-27T06:35:23.410Z,52.44
2023-04-27T06:37:49.871Z,52.15
2023-04-27T06:40:16.342Z,53.56
2023-04-27T06:42:42.774Z,50.69
2023-04-27T06:45:09.523Z,51.14
2023-04-27T06:47:37.701Z,48.96
2023-04-27T06:50:04.386Z,48.84
2023-04-27T06:52:33.166Z,49.22
2023-04-27T06:54:59.619Z,49.08
2023-04-27T06:57:26.037Z,46.88
2023-04-27T06:59:52.444Z,47.22
2023-04-27T07:02:18.985Z,47.02
2023-04-27T07:04:45.780Z,46.24
2023-04-27T07:07:12.181Z,46.71
2023-04-27T07:09:38.731Z,47.34
2023-04-27T07:12:05.194Z,49.02
2023-04-27T07:14:33.498Z,47.18
2023-04-27T07:16:59.937Z,46.11
2023-04-27T07:19:26.340Z,46.43
2023-04-27T07:21:52.824Z,46.43
2023-04-27T07:24:20.181Z,46.40
2023-04-27T07:26:46.673Z,45.95
2023-04-27T07:29:26.133Z,46.19
2023-04-27T07:31:54.501Z,48.42
2023-04-27T07:34:21.022Z,46.14
2023-04-27T07:36:47.523Z,46.52
2023-04-27T07:39:14.678Z,45.86
2023-04-27T07:41:41.252Z,44.07
2023-04-27T07:44:07.623Z,45.24
2023-04-27T07:46:34.203Z,43.67
2023-04-27T07:49:01.197Z,44.84
2023-04-27T07:51:30.506Z,45.36
2023-04-27T07:53:56.886Z,44.52
2023-04-27T07:56:23.316Z,44.78
2023-04-27T07:58:49.731Z,43.52
2023-04-27T08:01:17.608Z,43.10
2023-04-27T08:03:45.469Z,44.17
2023-04-27T08:06:12.374Z,44.23
2023-04-27T08:08:38.960Z,43.73
2023-04-27T08:11:08.785Z,43.28
2023-04-27T08:13:35.350Z,44.27
2023-04-27T08:16:01.951Z,43.68
2023-04-27T08:18:28.465Z,43.94
2023-04-27T08:20:55.582Z,43.19
2023-04-27T08:23:22.020Z,43.03
2023-04-27T08:25:48.599Z,41.71
2023-04-27T08:28:15.435Z,41.96
2023-04-27T08:30:42.716Z,42.54
2023-04-27T08:33:09.211Z,42.29
2023-04-27T08:35:35.653Z,41.86
2023-04-27T08:38:02.151Z,42.30
2023-04-27T08:40:28.647Z,42.67
2023-04-27T08:42:59.350Z,42.73
2023-04-27T08:45:27.122Z,42.31
2023-04-27T08:47:53.949Z,39.44
2023-04-27T08:50:20.499Z,38.72
2023-04-27T08:52:48.028Z,38.62
2023-04-27T08:55:16.639Z,39.61
2023-04-27T08:57:57.286Z,39.82
2023-04-27T09:00:25.176Z,41.42
2023-04-27T09:02:51.774Z,39.94
2023-04-27T09:05:23.062Z,40.92
2023-04-27T09:08:15.795Z,38.32
2023-04-27T09:10:50.111Z,37.04
2023-04-27T09:13:17.177Z,36.87
2023-04-27T09:15:47.849Z,37.77
2023-04-27T09:18:21.110Z,37.42
2023-04-27T09:20:49.699Z,36.54
2023-04-27T09:23:33.367Z,37.19
2023-04-27T09:26:02.287Z,38.37
2023-04-27T09:28:30.915Z,36.39
2023-04-27T09:31:04.126Z,35.87
2023-04-27T09:33:32.794Z,36.17
2023-04-27T09:36:01.396Z,36.36
2023-04-27T09:38:28.032Z,37.43
2023-04-27T09:40:55.112Z,39.20
2023-04-27T09:43:22.037Z,38.21
2023-04-27T09:45:49.894Z,37.22
2023-04-27T09:48:17.405Z,37.33
2023-04-27T09:50:45.551Z,38.86
2023-04-27T09:53:14.530Z,39.16
2023-04-27T09:55:51.724Z,35.19
2023-04-27T09:58:39.899Z,35.94
2023-04-27T10:01:31.761Z,37.43
2023-04-27T10:04:20.548Z,36.94
2023-04-27T10:06:58.846Z,37.15
2023-04-27T10:09:26.689Z,38.53
2023-04-27T10:11:54.871Z,38.26
2023-04-27T10:14:23.319Z,37.38
2023-04-27T10:16:51.929Z,37.43
2023-04-27T10:19:19.539Z,39.42
2023-04-27T10:21:52.879Z,38.41
2023-04-27T10:24:19.363Z,37.34
2023-04-27T10:26:47.857Z,38.35
2023-04-27T10:29:16.469Z,37.74
2023-04-27T10:31:48.366Z,38.46
2023-04-27T10:34:21.367Z,38.94
2023-04-27T10:36:48.060Z,39.03
2023-04-27T10:39:18.618Z,38.16
2023-04-27T10:41:52.723Z,37.66
2023-04-27T10:44:28.455Z,38.08
2023-04-27T10:46:57.183Z,37.88
2023-04-27T10:49:23.779Z,38.99
2023-04-27T10:51:51.346Z,37.84
2023-04-27T10:54:18.731Z,37.88
2023-04-27T10:56:45.620Z,36.99
2023-04-27T10:59:12.552Z,36.80
2023-04-27T11:01:40.228Z,36.37
2023-04-27T11:04:06.854Z,36.51
2023-04-27T11:06:42.288Z,35.34
2023-04-27T11:09:10.654Z,35.86
2023-04-27T11:11:37.360Z,36.15
2023-04-27T11:14:03.847Z,37.27
2023-04-27T11:16:32.914Z,36.67
2023-04-27T11:19:05.203Z,37.18
2023-04-27T11:21:32.363Z,39.12
2023-04-27T11:24:08.594Z,38.06
2023-04-27T11:26:34.997Z,36.99
2023-04-27T11:29:05.116Z,36.63
2023-04-27T11:31:51.451Z,35.40
2023-04-27T11:34:23.102Z,36.95
2023-04-27T11:37:14.345Z,37.44
2023-04-27T11:39:46.658Z,36.39
2023-04-27T11:42:24.402Z,37.30
2023-04-27T11:44:54.703Z,38.44
2023-04-27T11:47:22.506Z,35.41
2023-04-27T11:49:50.545Z,36.28
2023-04-27T11:52:17.593Z,35.87
2023-04-27T11:54:48.544Z,36.52
2023-04-27T11:57:15.153Z,37.58
2023-04-27T11:59:41.938Z,36.19
2023-04-27T12:02:09.236Z,36.88
2023-04-27T12:04:36.178Z,37.51
2023-04-27T12:07:03.860Z,37.74
2023-04-27T12:09:30.338Z,35.88
2023-04-27T12:11:56.772Z,36.28
2023-04-27T12:14:24.673Z,35.84
2023-04-27T12:16:51.759Z,36.05
2023-04-27T12:19:18.353Z,36.13
2023-04-27T12:21:45.388Z,36.00
2023-04-27T12:24:12.441Z,36.89
2023-04-27T12:26:39.762Z,35.13
2023-04-27T12:29:07.093Z,37.18
2023-04-27T12:31:34.147Z,35.51
2023-04-27T12:34:01.017Z,36.08
2023-04-27T12:36:27.413Z,36.70
2023-04-27T12:38:58.336Z,36.26
2023-04-27T12:41:25.158Z,34.82
2023-04-27T12:43:51.929Z,37.48
2023-04-27T12:46:18.690Z,36.28
2023-04-27T12:48:45.182Z,35.90
2023-04-27T12:51:11.687Z,34.91
2023-04-27T12:53:39.358Z,34.77
2023-04-27T12:56:06.132Z,35.74
2023-04-27T12:58:32.658Z,36.36
2023-04-27T13:00:59.163Z,36.55
2023-04-27T13:03:25.806Z,37.12
2023-04-27T13:05:52.314Z,37.02
2023-04-27T13:08:18.857Z,36.29
2023-04-27T13:10:45.378Z,35.61
2023-04-27T13:13:11.909Z,35.24
2023-04-27T13:15:38.752Z,36.36
2023-04-27T13:18:06.583Z,36.62
2023-04-27T13:20:48.488Z,35.26
2023-04-27T13:23:14.926Z,35.92
2023-04-27T13:25:41.572Z,35.94
2023-04-27T13:28:08.167Z,35.27
2023-04-27T13:30:34.725Z,34.89
2023-04-27T13:33:14.166Z,35.16
2023-04-27T13:35:47.999Z,37.26
2023-04-27T13:38:14.446Z,36.57
2023-04-27T13:40:40.979Z,36.17
2023-04-27T13:43:07.728Z,36.73
2023-04-27T13:45:34.132Z,37.63
2023-04-27T13:48:00.662Z,36.78
2023-04-27T13:50:27.157Z,36.84
2023-04-27T13:52:53.586Z,37.40
2023-04-27T13:55:20.043Z,36.94
2023-04-27T13:57:46.507Z,36.62
2023-04-27T14:00:14.396Z,36.51
2023-04-27T14:02:41.327Z,35.84
2023-04-27T14:05:08.380Z,36.96
2023-04-27T14:07:35.710Z,36.54
2023-04-27T14:10:05.793Z,36.70
2023-04-27T14:12:32.644Z,37.57
2023-04-27T14:14:59.435Z,37.65
2023-04-27T14:17:25.900Z,36.75
2023-04-27T14:19:52.327Z,37.13
2023-04-27T14:22:18.790Z,37.76
2023-04-27T14:24:45.340Z,35.47
2023-04-27T14:27:11.799Z,36.90
2023-04-27T14:29:38.397Z,37.82
2023-04-27T14:32:06.351Z,36.68
2023-04-27T14:34:32.999Z,36.01
2023-04-27T14:36:59.467Z,37.16
2023-04-27T14:39:27.976Z,37.72
2023-04-27T14:41:54.530Z,37.50
2023-04-27T14:44:21.062Z,37.51
2023-04-27T14:46:47.545Z,37.46
2023-04-27T14:49:14.387Z,37.27
2023-04-27T14:51:43.349Z,37.14
2023-04-27T14:54:10.104Z,36.79
2023-04-27T14:56:36.664Z,38.00
2023-04-27T14:59:03.231Z,37.30
2023-04-27T15:01:29.851Z,37.62
2023-04-27T15:03:57.940Z,37.77
2023-04-27T15:06:28.144Z,38.47
2023-04-27T15:08:55.611Z,38.00
2023-04-27T15:11:22.300Z,38.04
2023-04-27T15:13:49.135Z,38.06
2023-04-27T15:16:15.715Z,37.15
2023-04-27T15:18:42.292Z,37.99
2023-04-27T15:21:08.724Z,37.80
2023-04-27T15:23:37.132Z,37.44
2023-04-27T15:26:03.663Z,37.66
2023-04-27T15:28:30.785Z,37.75
2023-04-27T15:30:57.372Z,37.83
2023-04-27T15:33:23.944Z,38.02
2023-04-27T15:35:50.710Z,37.84
2023-04-27T15:38:17.888Z,38.06
2023-04-27T15:40:45.406Z,37.61
2023-04-27T15:43:11.985Z,37.99
2023-04-27T15:45:38.740Z,38.38
2023-04-27T15:48:05.334Z,38.79
2023-04-27T15:50:32.418Z,38.32
2023-04-27T15:52:58.930Z,38.67
2023-04-27T15:55:25.431Z,38.20
2023-04-27T15:57:51.852Z,38.20
2023-04-27T16:00:21.938Z,38.73
2023-04-27T16:02:48.887Z,38.16
2023-04-27T16:05:16.261Z,38.58
2023-04-27T16:07:44.425Z,38.01
2023-04-27T16:10:11.677Z,38.94
2023-04-27T16:12:38.576Z,39.20
2023-04-27T16:15:05.856Z,39.23
2023-04-27T16:17:41.134Z,38.60
2023-04-27T16:20:08.287Z,38.47
2023-04-27T16:22:38.435Z,38.92
2023-04-27T16:25:10.676Z,38.87
2023-04-27T16:27:38.355Z,39.17
2023-04-27T16:30:06.887Z,39.15
2023-04-27T16:32:35.405Z,39.57
2023-04-27T16:35:02.446Z,38.50
2023-04-27T16:37:28.924Z,38.51
2023-04-27T16:39:59.088Z,38.83
2023-04-27T16:42:26.010Z,39.09
2023-04-27T16:44:52.649Z,38.29
2023-04-27T16:47:19.114Z,38.48
2023-04-27T16:49:45.692Z,38.74
2023-04-27T16:52:12.152Z,38.82
2023-04-27T16:54:38.624Z,38.61
2023-04-27T16:57:05.029Z,38.81
2023-04-27T16:59:31.490Z,39.34
2023-04-27T17:02:01.712Z,38.81
2023-04-27T17:04:39.950Z,38.83
2023-04-27T17:07:09.574Z,38.72
2023-04-27T17:09:37.116Z,39.22
2023-04-27T17:12:08.160Z,39.15
2023-04-27T17:14:34.577Z,39.30
2023-04-27T17:17:01.049Z,39.16
2023-04-27T17:19:28.419Z,39.26
2023-04-27T17:21:57.382Z,39.52
2023-04-27T17:24:24.658Z,39.09
2023-04-27T17:26:51.503Z,39.61
2023-04-27T17:29:18.001Z,39.59
2023-04-27T17:31:44.478Z,39.94
2023-04-27T17:34:11.655Z,39.75
2023-04-27T17:36:38.179Z,39.73
2023-04-27T17:39:04.808Z,40.01
2023-04-27T17:41:32.839Z,39.95
2023-04-27T17:44:00.237Z,39.76
2023-04-27T17:46:26.709Z,39.52
2023-04-27T17:48:53.134Z,40.21
2023-04-27T17:51:19.510Z,40.39
2023-04-27T17:53:45.965Z,40.89
2023-04-27T17:56:12.446Z,41.40
2023-04-27T17:58:38.935Z,41.12
2023-04-27T18:01:09.031Z,41.48
2023-04-27T18:03:36.373Z,41.73
2023-04-27T18:06:02.871Z,41.57
2023-04-27T18:08:29.313Z,42.07
2023-04-27T18:10:55.722Z,41.96
2023-04-27T18:13:22.208Z,42.13
2023-04-27T18:15:48.664Z,42.82
2023-04-27T18:18:19.918Z,43.07
2023-04-27T18:20:47.635Z,42.89
2023-04-27T18:23:14.755Z,43.05
2023-04-27T18:25:41.208Z,43.17
2023-04-27T18:28:07.684Z,43.49
2023-04-27T18:30:34.162Z,43.65
2023-04-27T18:33:00.741Z,43.46
2023-04-27T18:35:27.261Z,44.05
2023-04-27T18:37:53.678Z,44.38
2023-04-27T18:40:21.630Z,44.42
2023-04-27T18:42:48.369Z,44.88
2023-04-27T18:45:15.762Z,44.69
2023-04-27T18:47:42.367Z,44.64
2023-04-27T18:50:10.287Z,44.72
2023-04-27T18:52:36.732Z,44.50
2023-04-27T18:55:03.832Z,45.01
2023-04-27T18:57:30.288Z,45.66
2023-04-27T18:59:56.713Z,45.64
2023-04-27T19:02:25.137Z,45.46
2023-04-27T19:05:01.511Z,46.09
2023-04-27T19:07:37.133Z,45.32
2023-04-27T19:10:04.038Z,45.00
2023-04-27T19:12:31.335Z,45.23
2023-04-27T19:14:57.784Z,45.49
2023-04-27T19:17:24.349Z,45.63
2023-04-27T19:19:51.075Z,46.20
2023-04-27T19:22:17.654Z,45.91
2023-04-27T19:24:44.073Z,46.08
2023-04-27T19:27:11.761Z,46.01
2023-04-27T19:29:51.396Z,46.52
2023-04-27T19:32:18.057Z,45.85
2023-04-27T19:34:44.615Z,46.72
2023-04-27T19:37:11.087Z,46.30
2023-04-27T19:39:38.566Z,46.27
2023-04-27T19:42:05.263Z,46.57
2023-04-27T19:44:31.764Z,46.16
2023-04-27T19:46:59.576Z,46.64
2023-04-27T19:49:25.978Z,46.80
2023-04-27T19:51:52.371Z,47.22
2023-04-27T19:54:18.935Z,47.36
2023-04-27T19:56:45.438Z,47.54
2023-04-27T19:59:12.513Z,47.96
2023-04-27T20:01:38.928Z,47.84
2023-04-27T20:05:20.399Z,48.99
2023-04-27T20:08:43.609Z,48.67
2023-04-27T20:12:06.782Z,48.76
2023-04-27T20:15:42.468Z,48.90
2023-04-27T20:22:51.804Z,48.74
2023-04-27T20:26:15.069Z,49.53
2023-04-27T20:29:37.767Z,49.39
2023-04-27T20:33:00.619Z,49.32
2023-04-27T20:36:35.762Z,49.31
2023-04-27T20:39:58.697Z,49.77
2023-04-27T20:43:34.054Z,49.60
2023-04-27T20:47:09.650Z,49.78
2023-04-27T20:50:32.629Z,49.71
2023-04-27T20:53:55.506Z,49.97
2023-04-27T20:57:30.561Z,50.12
2023-04-27T21:00:53.499Z,49.86
2023-04-27T21:04:16.578Z,50.62
2023-04-27T21:07:51.841Z,50.21
2023-04-27T21:11:17.377Z,50.85
2023-04-27T21:14:40.905Z,51.11
2023-04-27T21:18:03.656Z,51.32
2023-04-27T21:21:26.537Z,51.36
2023-04-27T21:24:49.324Z,51.49
2023-04-27T21:28:12.217Z,51.31
2023-04-27T21:31:35.103Z,51.99
2023-04-27T21:34:58.264Z,51.52
2023-04-27T21:38:27.391Z,51.59
2023-04-27T21:41:50.364Z,51.83
2023-04-27T21:45:12.929Z,51.66
2023-04-27T21:48:35.569Z,52.85
2023-04-27T21:51:26.403Z,52.53
2023-04-27T21:54:23.179Z,52.29
2023-04-27T21:57:26.950Z,52.61
2023-04-27T22:00:37.252Z,52.81
2023-04-27T22:03:22.599Z,53.23
2023-04-27T22:06:14.226Z,52.42
2023-04-27T22:08:46.657Z,52.52
2023-04-27T22:11:25.006Z,52.15
2023-04-27T22:13:51.490Z,52.87
2023-04-27T22:16:18.378Z,53.33
2023-04-27T22:19:02.897Z,53.56
2023-04-27T22:21:29.368Z,53.76
2023-04-27T22:23:55.846Z,54.22
2023-04-27T22:26:22.303Z,54.70
2023-04-27T22:28:48.777Z,53.37
2023-04-27T22:31:15.303Z,53.55
2023-04-27T22:33:41.853Z,54.20
2023-04-27T22:36:08.514Z,55.28
2023-04-27T22:38:35.055Z,54.86
2023-04-27T22:41:01.498Z,54.53
2023-04-27T22:43:27.930Z,53.64
2023-04-27T22:45:54.349Z,53.24
2023-04-27T22:48:21.159Z,53.47
2023-04-27T22:50:47.601Z,53.48
2023-04-27T22:53:14.054Z,53.86
2023-04-27T22:55:40.664Z,55.29
2023-04-27T22:58:07.043Z,55.41
2023-04-27T23:00:33.554Z,56.23
2023-04-27T23:03:00.174Z,55.95
2023-04-27T23:05:27.202Z,56.25
2023-04-27T23:07:53.637Z,57.10
2023-04-27T23:10:20.071Z,55.65
2023-04-27T23:12:46.586Z,57.23
2023-04-27T23:15:13.179Z,57.36
2023-04-27T23:17:39.695Z,58.15
2023-04-27T23:20:11.117Z,57.25
2023-04-27T23:22:43.884Z,57.99
2023-04-27T23:25:11.265Z,57.42
2023-04-27T23:27:37.946Z,57.53
2023-04-27T23:30:06.915Z,57.22
2023-04-27T23:32:34.861Z,56.74
2023-04-27T23:35:01.288Z,56.45
2023-04-27T23:37:27.717Z,58.12
2023-04-27T23:39:54.140Z,58.53
2023-04-27T23:42:20.537Z,58.69
2023-04-27T23:44:47.039Z,58.25
2023-04-27T23:47:13.479Z,57.73
2023-04-27T23:49:44.083Z,58.17
2023-04-27T23:52:11.360Z,59.15
2023-04-27T23:54:37.840Z,56.73
2023-04-27T23:57:04.201Z,56.25
2023-04-27T23:59:34.947Z,57.52
